Time;durP1;ratioP1;P1;durP2;ratioP2;P2;SDS_P1;SDS_P2;PMS_P1;PMS_P2;Temp;Humidity;BMP_temperature;BMP_pressure;BME280_temperature;BME280_humidity;BME280_pressure;Samples;Min_cycle;Max_cycle;Signal;HPM_P1;HPM_P2
2023/01/01 00:00:29;;;;;;;147.63;124.87;;;;;;;5.96;100.00;102905.19;2063678;28;20210;-63
2023/01/01 00:01:30;;;;;;;171.70;144.07;;;;;;;5.92;100.00;102898.78;2063306;28;20232;-63
2023/01/01 00:02:31;;;;;;;149.10;126.22;;;;;;;5.54;100.00;102844.09;2064007;28;20204;-63
2023/01/01 00:03:32;;;;;;;117.82;102.45;;;;;;;5.99;100.00;102918.25;2064656;28;20631;-63
2023/01/01 00:04:33;;;;;;;114.57;99.77;;;;;;;5.96;100.00;102916.19;2064141;28;20182;-63
2023/01/01 00:05:36;;;;;;;130.87;109.73;;;;;;;5.77;100.00;102893.94;2064502;28;20563;-63
2023/01/01 00:06:37;;;;;;;137.32;116.47;;;;;;;5.28;100.00;102812.59;2064379;28;20178;-63
2023/01/01 00:07:37;;;;;;;129.33;109.43;;;;;;;5.87;100.00;102916.34;2064240;28;20183;-63
2023/01/01 00:08:39;;;;;;;143.27;123.43;;;;;;;5.89;100.00;102922.28;2064456;28;20243;-63
2023/01/01 00:11:03;;;;;;;141.35;117.30;;;;;;;5.81;100.00;102908.66;2068405;28;20175;-64
2023/01/01 00:12:04;;;;;;;145.52;120.45;;;;;;;5.84;100.00;102932.72;2056404;28;20184;-63
2023/01/01 00:13:04;;;;;;;117.07;101.70;;;;;;;5.72;100.00;102908.75;2063001;28;20185;-63
2023/01/01 00:14:05;;;;;;;147.73;122.93;;;;;;;5.74;100.00;102922.94;2064389;28;20197;-63
2023/01/01 00:15:06;;;;;;;147.80;122.70;;;;;;;5.62;100.00;102925.69;2064307;28;20190;-63
2023/01/01 00:16:11;;;;;;;156.80;132.10;;;;;;;5.57;100.00;102925.94;2064516;28;20193;-64
2023/01/01 00:17:12;;;;;;;158.18;131.85;;;;;;;5.57;100.00;102923.19;2064239;28;20196;-63
2023/01/01 00:18:12;;;;;;;158.50;135.17;;;;;;;5.57;100.00;102930.63;2063995;28;20673;-63
2023/01/01 00:19:13;;;;;;;163.70;136.50;;;;;;;5.64;100.00;102928.13;2063986;28;20260;-63
2023/01/01 00:20:13;;;;;;;160.40;135.73;;;;;;;5.64;100.00;102931.66;2064740;28;20174;-63
2023/01/01 00:21:14;;;;;;;165.87;133.60;;;;;;;5.64;100.00;102931.66;2063578;28;20217;-63
2023/01/01 00:22:14;;;;;;;159.70;134.70;;;;;;;5.53;100.00;102915.97;2064084;28;20563;-63
2023/01/01 00:23:14;;;;;;;152.70;129.53;;;;;;;5.64;100.00;102930.88;2064378;28;20182;-63
2023/01/01 00:24:15;;;;;;;155.90;133.40;;;;;;;5.66;100.00;102936.81;2064353;28;20664;-63
2023/01/01 00:25:17;;;;;;;161.80;135.77;;;;;;;5.68;100.00;102946.34;2064103;28;20193;-63
2023/01/01 00:26:17;;;;;;;150.50;129.05;;;;;;;5.68;100.00;102945.53;2065431;28;20303;-63
2023/01/01 00:27:18;;;;;;;154.03;131.67;;;;;;;5.52;100.00;102926.16;2071203;28;20227;-63
2023/01/01 00:28:18;;;;;;;148.33;129.43;;;;;;;5.67;100.00;102944.72;2063927;28;20261;-63
2023/01/01 00:29:18;;;;;;;165.30;139.47;;;;;;;5.70;100.00;102946.78;2056474;28;20560;-63
2023/01/01 00:30:19;;;;;;;162.13;137.20;;;;;;;5.73;100.00;102945.28;2063438;28;20240;-63
2023/01/01 00:31:21;;;;;;;162.27;138.40;;;;;;;5.67;100.00;102944.72;2063321;28;20190;-63
2023/01/01 00:32:21;;;;;;;168.27;139.50;;;;;;;5.50;100.00;102914.72;2064057;28;20185;-63
2023/01/01 00:33:22;;;;;;;163.00;137.20;;;;;;;5.72;100.00;102949.19;2064126;28;20189;-63
2023/01/01 00:34:22;;;;;;;179.33;146.80;;;;;;;5.69;100.00;102952.66;2064151;28;20431;-63
2023/01/01 00:35:26;;;;;;;172.10;143.20;;;;;;;5.62;100.00;102950.47;2064210;28;20194;-63
2023/01/01 00:36:27;;;;;;;173.68;143.80;;;;;;;4.91;100.00;102831.00;2064267;28;20180;-63
2023/01/01 00:37:28;;;;;;;175.57;145.43;;;;;;;5.63;100.00;102957.56;2064633;28;20509;-63
2023/01/01 00:38:28;;;;;;;166.03;141.50;;;;;;;5.69;100.00;102950.69;2063695;28;20176;-63
2023/01/01 00:39:29;;;;;;;145.80;125.30;;;;;;;5.48;100.00;102924.44;2064347;28;20190;-63
2023/01/01 00:40:29;;;;;;;153.27;127.33;;;;;;;5.72;100.00;102960.19;2064066;28;20273;-63
2023/01/01 00:41:29;;;;;;;160.23;131.90;;;;;;;5.72;100.00;102960.19;2063830;28;20251;-63
2023/01/01 00:42:30;;;;;;;159.77;133.60;;;;;;;5.71;100.00;102958.59;2063742;28;20281;-63
2023/01/01 00:43:30;;;;;;;142.07;123.53;;;;;;;5.75;100.00;102962.28;2071634;28;20182;-63
2023/01/01 00:44:31;;;;;;;154.40;130.57;;;;;;;5.74;100.00;102963.44;2071621;28;20204;-63
2023/01/01 00:45:31;;;;;;;149.03;130.07;;;;;;;5.75;100.00;102957.56;2063604;28;20595;-63
2023/01/01 00:46:32;;;;;;;148.70;130.90;;;;;;;5.72;100.00;102957.44;2064415;28;20624;-63
2023/01/01 00:47:32;;;;;;;146.70;126.97;;;;;;;5.78;100.00;102958.81;2064299;28;20275;-63
2023/01/01 00:48:33;;;;;;;152.27;129.33;;;;;;;5.61;100.00;102937.84;2063632;28;20181;-63
2023/01/01 00:49:33;;;;;;;150.37;128.13;;;;;;;5.76;100.00;102964.69;2064097;28;20264;-63
2023/01/01 00:50:34;;;;;;;153.13;131.80;;;;;;;5.78;100.00;102967.88;2064206;28;20192;-63
2023/01/01 00:51:34;;;;;;;148.60;125.03;;;;;;;5.79;100.00;102963.97;2063636;28;20177;-63
2023/01/01 00:52:34;;;;;;;146.37;121.43;;;;;;;5.79;100.00;102961.25;2063758;28;20256;-63
2023/01/01 00:53:35;;;;;;;159.03;135.60;;;;;;;5.80;100.00;102971.13;2064506;28;20170;-63
2023/01/01 00:54:36;;;;;;;143.20;123.57;;;;;;;5.79;100.00;102963.97;2064140;28;20336;-63
2023/01/01 00:55:38;;;;;;;140.67;122.37;;;;;;;5.81;100.00;102972.75;2069914;28;20214;-63
2023/01/01 00:56:39;;;;;;;136.93;120.57;;;;;;;5.79;100.00;102963.19;2058303;28;20203;-63
2023/01/01 00:57:39;;;;;;;143.83;121.93;;;;;;;5.77;100.00;102976.47;2063440;28;20210;-63
2023/01/01 00:58:40;;;;;;;148.40;126.53;;;;;;;5.77;100.00;102969.03;2059105;28;20205;-63
2023/01/01 00:59:40;;;;;;;148.90;126.97;;;;;;;5.77;100.00;102980.06;2064316;28;20538;-63
2023/01/01 01:00:41;;;;;;;153.43;129.63;;;;;;;5.79;100.00;102976.97;2064111;28;20177;-63
2023/01/01 01:01:41;;;;;;;150.03;126.57;;;;;;;5.78;100.00;102981.66;2063730;28;20163;-63
2023/01/01 01:02:42;;;;;;;146.70;123.03;;;;;;;5.72;100.00;102966.50;2063762;28;20276;-63
2023/01/01 01:03:42;;;;;;;148.73;128.30;;;;;;;5.75;100.00;102973.28;2064377;28;20190;-63
2023/01/01 01:04:42;;;;;;;151.30;125.57;;;;;;;5.38;100.00;102922.91;2063904;28;20629;-63
2023/01/01 01:05:43;;;;;;;144.13;122.63;;;;;;;5.77;100.00;102987.50;2064366;28;20200;-63
2023/01/01 01:06:43;;;;;;;144.73;125.80;;;;;;;5.77;100.00;102987.50;2064126;28;20614;-64
2023/01/01 01:07:44;;;;;;;138.23;118.50;;;;;;;5.77;100.00;102982.81;2063752;28;20177;-63
2023/01/01 01:08:45;;;;;;;138.30;118.37;;;;;;;5.78;100.00;102972.56;2064035;28;20201;-63
2023/01/01 01:09:46;;;;;;;138.43;117.75;;;;;;;5.79;100.00;102974.22;2064400;28;20204;-63
2023/01/01 01:10:46;;;;;;;144.70;123.63;;;;;;;5.77;100.00;102970.97;2067973;28;20201;-63
2023/01/01 01:11:46;;;;;;;140.27;122.77;;;;;;;5.77;100.00;102974.53;2064213;28;20217;-64
2023/01/01 01:12:47;;;;;;;138.77;117.20;;;;;;;5.78;100.00;102978.91;2063901;28;20647;-63
2023/01/01 01:13:50;;;;;;;144.47;121.80;;;;;;;5.79;100.00;102975.00;2064053;28;20659;-63
2023/01/01 01:14:51;;;;;;;145.25;125.53;;;;;;;5.79;100.00;102974.22;2064160;28;20622;-63
2023/01/01 01:15:51;;;;;;;137.57;121.10;;;;;;;5.74;100.00;102966.97;2064095;28;20190;-63
2023/01/01 01:16:52;;;;;;;143.53;122.73;;;;;;;5.80;100.00;102970.34;2064084;28;20182;-63
2023/01/01 01:17:52;;;;;;;142.47;124.10;;;;;;;5.78;100.00;102973.41;2063605;28;20181;-63
2023/01/01 01:18:56;;;;;;;133.60;118.57;;;;;;;5.80;100.00;102975.84;2064332;28;20174;-63
2023/01/01 01:19:56;;;;;;;133.20;118.57;;;;;;;5.63;100.00;102954.00;2064378;28;20214;-63
2023/01/01 01:20:57;;;;;;;138.90;120.83;;;;;;;5.40;100.00;102912.41;2063936;28;20186;-63
2023/01/01 01:21:57;;;;;;;141.97;120.77;;;;;;;5.80;100.00;102973.88;2063958;28;20193;-63
2023/01/01 01:22:58;;;;;;;136.87;118.67;;;;;;;5.80;100.00;102979.38;2063569;28;20196;-63
2023/01/01 01:24:00;;;;;;;135.60;118.17;;;;;;;5.14;100.00;102869.88;2064186;28;20206;-63
2023/01/01 01:25:00;;;;;;;131.60;114.47;;;;;;;5.47;100.00;102920.88;2064031;28;20182;-64
2023/01/01 01:26:13;;;;;;;132.27;115.57;;;;;;;5.81;100.00;102971.94;2064074;28;20269;-63
2023/01/01 01:27:14;;;;;;;132.65;113.50;;;;;;;5.81;100.00;102969.19;2063915;28;20178;-63
2023/01/01 01:28:14;;;;;;;122.27;106.23;;;;;;;5.78;100.00;102967.06;2071206;28;20189;-63
2023/01/01 01:29:15;;;;;;;124.60;107.20;;;;;;;5.84;100.00;102968.50;2071698;28;20173;-63
2023/01/01 01:30:15;;;;;;;126.40;110.27;;;;;;;5.78;100.00;102964.31;2064309;28;20376;-63
2023/01/01 01:31:17;;;;;;;121.53;106.20;;;;;;;5.82;100.00;102973.53;2063277;28;20189;-63
2023/01/01 01:32:18;;;;;;;120.82;106.10;;;;;;;5.78;100.00;102972.56;2063798;28;20186;-63
2023/01/01 01:33:18;;;;;;;128.23;110.17;;;;;;;5.76;100.00;102966.63;2064061;28;20183;-63
2023/01/01 01:34:19;;;;;;;119.73;106.67;;;;;;;5.57;100.00;102938.88;2063770;28;20201;-63
2023/01/01 01:35:19;;;;;;;127.37;113.13;;;;;;;5.74;100.00;102966.97;2064158;28;20186;-63
2023/01/01 01:36:20;;;;;;;130.27;111.97;;;;;;;5.74;100.00;102963.44;2064151;28;20182;-63
2023/01/01 01:37:20;;;;;;;107.23;94.90;;;;;;;5.72;100.00;102961.00;2064042;28;20209;-63
2023/01/01 01:38:21;;;;;;;112.40;95.97;;;;;;;5.68;100.00;102962.84;2063589;28;20213;-63
2023/01/01 01:39:22;;;;;;;98.67;83.70;;;;;;;5.31;100.00;102902.63;2064145;28;20655;-63
2023/01/01 01:40:22;;;;;;;115.50;100.93;;;;;;;5.65;100.00;102954.47;2064026;28;20186;-63
2023/01/01 01:41:25;;;;;;;117.13;101.67;;;;;;;5.60;100.00;102943.69;2063590;28;20695;-63
2023/01/01 01:42:26;;;;;;;107.10;92.55;;;;;;;4.76;100.00;102815.16;2063694;28;20217;-64
2023/01/01 01:43:32;;;;;;;109.67;95.50;;;;;;;5.55;100.00;102943.91;2064150;28;20185;-63
2023/01/01 01:44:47;;;;;;;115.32;98.72;;;;;;;5.51;100.00;102937.50;2063806;28;20268;-63
2023/01/01 01:45:48;;;;;;;115.78;98.68;;;;;;;5.04;100.00;102873.03;2064158;28;20205;-63
2023/01/01 01:46:49;;;;;;;116.05;100.15;;;;;;;5.44;100.00;102938.03;2063855;28;20185;-63
2023/01/01 01:47:57;;;;;;;112.80;95.77;;;;;;;5.36;100.00;102921.66;2063505;28;20181;-63
2023/01/01 01:49:13;;;;;;;124.63;104.13;;;;;;;5.33;100.00;102927.84;2063977;28;20236;-63
2023/01/01 01:50:22;;;;;;;110.18;92.60;;;;;;;5.22;100.00;102918.41;2064163;28;20639;-63
2023/01/01 01:51:28;;;;;;;103.63;85.68;;;;;;;4.55;100.00;102819.94;2063265;28;20178;-63
2023/01/01 01:52:31;;;;;;;112.22;93.45;;;;;;;5.09;100.00;102912.13;2065039;28;20200;-63
2023/01/01 01:53:34;;;;;;;124.97;103.15;;;;;;;4.91;100.00;102893.38;2065511;28;20263;-63
2023/01/01 01:54:34;;;;;;;137.15;107.43;;;;;;;5.03;100.00;102909.94;2065588;28;20282;-63
2023/01/01 01:55:38;;;;;;;148.07;115.47;;;;;;;4.90;100.00;102889.84;2065625;28;20189;-63
2023/01/01 01:56:43;;;;;;;140.05;114.28;;;;;;;5.01;100.00;102914.94;2058789;28;20244;-63
2023/01/01 01:57:43;;;;;;;139.77;113.95;;;;;;;4.95;100.00;102911.63;2063185;28;20666;-63
2023/01/01 01:58:44;;;;;;;142.13;116.77;;;;;;;4.45;100.00;102834.06;2060392;28;20194;-63
2023/01/01 01:59:49;;;;;;;138.93;112.30;;;;;;;4.91;100.00;102904.38;2060601;28;20188;-63
2023/01/01 02:00:51;;;;;;;135.00;111.20;;;;;;;4.87;100.00;102904.25;2064427;28;20229;-63
2023/01/01 02:01:52;;;;;;;129.82;106.35;;;;;;;4.83;100.00;102906.06;2064151;28;20188;-63
2023/01/01 02:03:01;;;;;;;140.40;116.35;;;;;;;4.80;100.00;102911.44;2063808;28;20208;-63
2023/01/01 02:04:02;;;;;;;141.20;112.75;;;;;;;4.74;100.00;102902.63;2058542;28;20178;-63
2023/01/01 02:05:04;;;;;;;141.52;113.35;;;;;;;4.73;100.00;102897.47;2065154;28;20181;-63
2023/01/01 02:06:05;;;;;;;138.23;111.47;;;;;;;4.69;100.00;102913.81;2057555;28;20210;-63
2023/01/01 02:07:06;;;;;;;125.67;103.87;;;;;;;4.56;100.00;102878.41;2064642;28;20186;-63
2023/01/01 02:08:08;;;;;;;125.87;103.90;;;;;;;4.64;100.00;102894.00;2058817;28;20252;-63
2023/01/01 02:09:10;;;;;;;131.15;109.10;;;;;;;4.63;100.00;102892.38;2062495;28;20264;-63
2023/01/01 02:10:10;;;;;;;132.38;110.35;;;;;;;4.60;100.00;102879.31;2061319;28;20208;-63
2023/01/01 02:11:11;;;;;;;133.17;111.67;;;;;;;4.56;100.00;102895.69;2067503;28;20278;-63
2023/01/01 02:12:11;;;;;;;128.70;108.00;;;;;;;4.53;100.00;102885.38;2063115;28;20178;-63
2023/01/01 02:13:13;;;;;;;125.63;107.60;;;;;;;4.49;100.00;102894.59;2057786;28;20185;-63
2023/01/01 02:14:13;;;;;;;133.55;112.88;;;;;;;4.36;100.00;102865.50;2065566;28;20184;-63
2023/01/01 02:15:14;;;;;;;133.60;112.57;;;;;;;4.10;100.00;102832.78;2065260;28;20230;-63
2023/01/01 02:16:38;;;;;;;138.57;111.67;;;;;;;4.48;100.00;102882.84;2065478;28;20672;-63
2023/01/01 02:18:01;;;;;;;126.18;106.88;;;;;;;4.06;100.00;102804.41;2057309;28;20411;-63
2023/01/01 02:19:56;;;;;;;131.63;105.55;;;;;;;4.46;100.00;102878.81;2058774;28;20658;-63
2023/01/01 02:21:13;;;;;;;128.23;101.45;;;;;;;4.25;100.00;102861.56;2047988;29;20200;-63
2023/01/01 02:22:31;;;;;;;120.20;100.15;;;;;;;4.30;100.00;102878.63;2056593;28;20198;-63
2023/01/01 02:23:32;;;;;;;135.25;110.90;;;;;;;4.26;100.00;102869.44;2058060;28;20178;-63
2023/01/01 02:24:56;;;;;;;133.07;110.93;;;;;;;4.26;100.00;102866.69;2065369;28;20202;-63
2023/01/01 02:26:18;;;;;;;129.60;102.07;;;;;;;4.27;100.00;102873.78;2058779;28;20164;-63
2023/01/01 02:27:24;;;;;;;131.55;108.45;;;;;;;4.24;100.00;102870.91;2064954;28;20661;-63
2023/01/01 02:28:51;;;;;;;132.48;109.55;;;;;;;4.24;100.00;102869.00;2064646;28;20570;-63
2023/01/01 02:29:57;;;;;;;126.45;106.25;;;;;;;4.16;100.00;102855.34;2065318;28;20179;-63
2023/01/01 02:31:00;;;;;;;129.98;109.32;;;;;;;4.24;100.00;102882.72;2064850;28;20544;-63
2023/01/01 02:32:06;;;;;;;138.45;112.65;;;;;;;4.24;100.00;102869.00;2064983;28;20275;-63
2023/01/01 02:33:11;;;;;;;131.20;106.22;;;;;;;4.19;100.00;102858.22;2064976;28;20722;-63
2023/01/01 02:34:15;;;;;;;127.25;106.63;;;;;;;4.12;100.00;102848.91;2065174;28;20246;-63
2023/01/01 02:35:50;;;;;;;128.43;106.57;;;;;;;4.19;100.00;102866.44;2064977;28;20191;-63
2023/01/01 02:36:55;;;;;;;132.13;106.40;;;;;;;4.15;100.00;102864.72;2049974;28;20383;-63
2023/01/01 02:38:01;;;;;;;123.80;102.22;;;;;;;4.15;100.00;102871.00;2060607;28;20661;-63
2023/01/01 02:39:06;;;;;;;115.47;90.82;;;;;;;4.16;100.00;102871.81;2064623;28;20624;-63
2023/01/01 02:40:07;;;;;;;122.88;102.75;;;;;;;4.11;100.00;102859.06;2065377;28;20195;-63
2023/01/01 02:41:16;;;;;;;131.27;110.73;;;;;;;3.61;100.00;102789.75;2064604;28;20468;-63
2023/01/01 02:42:19;;;;;;;138.38;114.93;;;;;;;3.58;100.00;102787.69;2064811;28;20268;-63
2023/01/01 02:43:20;;;;;;;141.82;118.10;;;;;;;4.12;100.00;102874.44;2064990;28;20180;-63
2023/01/01 02:44:23;;;;;;;147.80;123.73;;;;;;;4.00;100.00;102843.38;2064894;28;20228;-63
2023/01/01 02:45:24;;;;;;;143.07;120.38;;;;;;;3.69;100.00;102782.63;2065091;28;20754;-63
2023/01/01 02:46:34;;;;;;;148.90;126.10;;;;;;;3.45;100.00;102747.59;2065296;28;20616;-63
2023/01/01 02:47:36;;;;;;;139.70;116.22;;;;;;;3.55;100.00;102768.34;2057367;28;20174;-63
2023/01/01 02:48:45;;;;;;;128.90;107.45;;;;;;;4.29;100.00;102863.31;2064840;28;20191;-63
2023/01/01 02:49:59;;;;;;;131.88;109.88;;;;;;;3.64;100.00;102772.63;2065160;28;20200;-63
2023/01/01 02:51:10;;;;;;;149.02;121.38;;;;;;;3.85;100.00;102787.16;2056847;28;20589;-64
2023/01/01 02:52:35;;;;;;;153.48;124.40;;;;;;;4.30;100.00;102864.09;2057036;28;20647;-63
2023/01/01 02:53:40;;;;;;;140.20;115.10;;;;;;;4.31;100.00;102862.97;2075158;28;20182;-63
2023/01/01 02:55:14;;;;;;;159.00;130.20;;;;;;;4.32;100.00;102859.88;2071845;28;20292;-63
2023/01/01 02:56:47;;;;;;;163.13;131.73;;;;;;;4.37;100.00;102867.09;2065093;28;20185;-63
2023/01/01 03:01:19;;;;;;;182.43;142.60;;;;;;;4.38;100.00;102860.47;2064596;28;20185;-63
2023/01/01 03:02:39;;;;;;;178.52;140.45;;;;;;;4.34;100.00;102867.78;2064670;28;20749;-63
2023/01/01 03:03:47;;;;;;;161.25;129.50;;;;;;;4.06;100.00;102815.38;2057168;28;20174;-63
2023/01/01 03:05:01;;;;;;;169.95;134.70;;;;;;;3.65;100.00;102737.81;2056916;28;20161;-63
2023/01/01 03:06:23;;;;;;;165.70;132.25;;;;;;;3.97;100.00;102797.38;2064284;28;20184;-63
2023/01/01 03:07:39;;;;;;;158.02;128.15;;;;;;;4.41;100.00;102857.84;2068173;28;20175;-63
2023/01/01 03:08:47;;;;;;;165.82;135.90;;;;;;;4.41;100.00;102860.59;2069768;28;20255;-63
2023/01/01 03:10:13;;;;;;;167.48;136.05;;;;;;;4.44;100.00;102854.44;2064925;28;20641;-63
2023/01/01 03:11:17;;;;;;;151.68;121.90;;;;;;;4.46;100.00;102856.84;2063925;28;20216;-63
2023/01/01 03:12:38;;;;;;;146.40;117.05;;;;;;;4.46;100.00;102854.91;2064492;28;20626;-63
2023/01/01 03:13:52;;;;;;;147.27;122.63;;;;;;;4.49;100.00;102856.97;2064947;28;20283;-63
2023/01/01 03:15:00;;;;;;;148.60;121.28;;;;;;;4.52;100.00;102852.75;2064806;28;20204;-63
2023/01/01 03:16:03;;;;;;;147.75;121.05;;;;;;;4.53;100.00;102855.19;2065082;28;20554;-63
2023/01/01 03:17:16;;;;;;;146.85;120.88;;;;;;;4.52;100.00;102859.03;2064648;28;20193;-63
2023/01/01 03:18:38;;;;;;;121.00;100.30;;;;;;;4.51;100.00;102849.19;2064632;28;20193;-63
2023/01/01 03:19:41;;;;;;;124.20;98.22;;;;;;;4.54;100.00;102850.47;2065057;28;20199;-63
2023/01/01 03:20:46;;;;;;;58.13;46.03;;;;;;;3.92;100.00;102753.69;2064736;28;20194;-63
2023/01/01 03:21:49;;;;;;;108.30;89.78;;;;;;;4.59;100.00;102848.31;2064439;28;20676;-63
2023/01/01 03:22:52;;;;;;;75.00;60.40;;;;;;;4.60;100.00;102832.63;2064356;28;20217;-63
2023/01/01 03:23:54;;;;;;;83.25;65.20;;;;;;;4.39;100.00;102810.72;2064843;28;20495;-63
2023/01/01 03:25:08;;;;;;;65.82;54.55;;;;;;;4.54;100.00;102823.81;2064585;28;20685;-63
2023/01/01 03:26:10;;;;;;;66.05;54.20;;;;;;;4.74;100.00;102849.63;2064803;28;20333;-63
2023/01/01 03:27:20;;;;;;;39.65;32.90;;;;;;;4.80;100.00;102854.56;2064522;28;20190;-63
2023/01/01 03:28:31;;;;;;;52.33;43.38;;;;;;;4.88;100.00;102852.88;2064305;28;20188;-63
2023/01/01 03:29:34;;;;;;;41.15;33.70;;;;;;;4.49;100.00;102791.09;2064801;28;20181;-63
2023/01/01 03:30:38;;;;;;;35.35;29.95;;;;;;;4.42;100.00;102777.09;2064642;28;20187;-63
2023/01/01 03:31:43;;;;;;;45.40;37.78;;;;;;;4.65;100.00;102802.22;2064114;28;20176;-63
2023/01/01 03:33:04;;;;;;;64.65;54.13;;;;;;;4.65;100.00;102785.72;2064330;28;20170;-63
2023/01/01 03:34:09;;;;;;;91.35;76.85;;;;;;;5.14;100.00;102861.63;2064923;28;20190;-63
2023/01/01 03:35:12;;;;;;;50.92;42.13;;;;;;;5.16;100.00;102853.81;2064519;28;20259;-64
2023/01/01 03:36:26;;;;;;;26.05;21.95;;;;;;;5.22;100.00;102858.75;2064879;28;20190;-63
2023/01/01 03:37:29;;;;;;;26.30;23.42;;;;;;;5.29;100.00;102858.97;2064066;28;20208;-63
2023/01/01 03:38:39;;;;;;;30.98;26.25;;;;;;;4.87;100.00;102786.13;2063382;28;20717;-63
2023/01/01 03:39:48;;;;;;;40.13;33.20;;;;;;;5.39;100.00;102858.53;2064796;28;20170;-63
2023/01/01 03:40:51;;;;;;;25.52;21.45;;;;;;;5.45;100.00;102862.69;2064528;28;20174;-63
2023/01/01 03:42:17;;;;;;;27.02;22.75;;;;;;;5.54;100.00;102863.34;2064153;28;20647;-63
2023/01/01 03:43:43;;;;;;;70.93;60.15;;;;;;;5.58;100.00;102860.69;2064549;28;20193;-64
2023/01/01 03:44:48;;;;;;;72.18;58.25;;;;;;;5.54;100.00;102857.84;2061229;28;20220;-63
2023/01/01 03:45:51;;;;;;;57.58;47.63;;;;;;;5.57;100.00;102865.41;2064541;28;20188;-63
2023/01/01 03:46:52;;;;;;;72.20;62.15;;;;;;;5.58;100.00;102860.69;2064668;28;20189;-63
2023/01/01 03:47:54;;;;;;;72.40;60.72;;;;;;;5.60;100.00;102861.97;2064004;28;20233;-63
2023/01/01 03:48:55;;;;;;;71.38;61.00;;;;;;;5.61;100.00;102857.28;2064539;28;20182;-63
2023/01/01 03:49:57;;;;;;;80.63;66.00;;;;;;;5.32;100.00;102816.25;2064477;28;20251;-63
2023/01/01 03:51:10;;;;;;;91.03;77.30;;;;;;;5.61;100.00;102862.78;2064264;28;20648;-63
2023/01/01 03:52:22;;;;;;;88.55;74.45;;;;;;;5.63;100.00;102864.03;2064333;28;20165;-63
2023/01/01 03:53:39;;;;;;;98.45;82.20;;;;;;;5.62;100.00;102859.69;2064622;28;20267;-63
2023/01/01 03:55:03;;;;;;;110.55;89.78;;;;;;;5.54;100.00;102868.84;2064382;28;20196;-63
2023/01/01 03:56:09;;;;;;;119.95;101.22;;;;;;;5.48;100.00;102869.44;2064807;28;20192;-63
2023/01/01 03:57:15;;;;;;;123.25;103.25;;;;;;;5.44;100.00;102877.56;2064502;28;20198;-63
2023/01/01 03:58:25;;;;;;;122.55;106.70;;;;;;;5.44;100.00;102882.25;2064323;28;20742;-64
2023/01/01 03:59:36;;;;;;;131.25;110.65;;;;;;;5.43;100.00;102884.19;2064598;28;20219;-63
2023/01/01 04:00:45;;;;;;;122.63;102.13;;;;;;;4.63;100.00;102760.56;2063853;28;20651;-63
2023/01/01 04:01:52;;;;;;;114.15;96.03;;;;;;;5.31;100.00;102877.88;2063117;28;20200;-63
2023/01/01 04:03:00;;;;;;;102.85;87.45;;;;;;;5.37;100.00;102882.00;2064089;28;20200;-64
2023/01/01 04:04:04;;;;;;;103.03;84.57;;;;;;;5.41;100.00;102888.44;2064325;28;20668;-63
2023/01/01 04:05:08;;;;;;;92.75;81.88;;;;;;;5.46;100.00;102879.97;2064414;28;20243;-63
2023/01/01 04:06:10;;;;;;;99.68;83.90;;;;;;;5.48;100.00;102883.19;2064627;28;20209;-63
2023/01/01 04:07:11;;;;;;;98.50;84.82;;;;;;;5.02;100.00;102809.38;2064176;28;20219;-63
2023/01/01 04:08:13;;;;;;;101.07;85.43;;;;;;;4.85;100.00;102780.16;2068106;28;20188;-63
2023/01/01 04:09:22;;;;;;;101.95;87.28;;;;;;;5.60;100.00;102896.94;2064464;28;20179;-64
2023/01/01 04:10:24;;;;;;;95.78;81.13;;;;;;;5.54;100.00;102893.59;2056711;28;20167;-63
2023/01/01 04:12:56;;;;;;;94.07;78.88;;;;;;;5.62;100.00;102903.69;2056341;28;20243;-64
2023/01/01 04:13:56;;;;;;;93.78;76.32;;;;;;;5.64;100.00;102906.09;2056246;28;20660;-63
2023/01/01 04:14:57;;;;;;;86.73;74.60;;;;;;;5.65;100.00;102905.75;2064117;28;20594;-63
2023/01/01 04:15:57;;;;;;;91.20;75.87;;;;;;;5.64;100.00;102903.34;2064492;28;20179;-63
2023/01/01 04:16:59;;;;;;;84.43;73.23;;;;;;;5.63;100.00;102902.53;2063670;28;20248;-63
2023/01/01 04:17:59;;;;;;;82.15;70.03;;;;;;;5.58;100.00;102896.47;2063375;28;20293;-63
2023/01/01 04:18:59;;;;;;;81.30;72.30;;;;;;;5.20;100.00;102852.00;2064522;28;20189;-64
2023/01/01 04:20:00;;;;;;;81.37;71.23;;;;;;;5.58;100.00;102907.47;2064395;28;20266;-63
2023/01/01 04:21:00;;;;;;;82.33;73.30;;;;;;;5.63;100.00;102908.03;2063960;28;20209;-63
2023/01/01 04:22:01;;;;;;;83.70;69.83;;;;;;;5.66;100.00;102910.13;2064078;28;20656;-63
2023/01/01 04:23:02;;;;;;;82.00;69.67;;;;;;;5.70;100.00;102916.50;2064129;28;20182;-63
2023/01/01 04:24:03;;;;;;;78.13;68.00;;;;;;;5.72;100.00;102916.19;2064212;28;20195;-63
2023/01/01 04:25:04;;;;;;;79.47;67.33;;;;;;;5.57;100.00;102895.66;2070409;28;20183;-64
2023/01/01 04:26:05;;;;;;;79.10;68.00;;;;;;;5.65;100.00;102893.94;2067397;28;20556;-63
2023/01/01 04:27:05;;;;;;;77.13;67.23;;;;;;;5.75;100.00;102908.03;2064286;28;20214;-63
2023/01/01 04:28:06;;;;;;;77.60;65.13;;;;;;;5.76;100.00;102912.41;2063882;28;20206;-64
2023/01/01 04:29:06;;;;;;;79.10;67.37;;;;;;;5.25;100.00;102855.34;2064159;28;20235;-63
2023/01/01 04:32:13;;;;;;;73.05;62.80;;;;;;;5.74;100.00;102920.19;2057358;28;21017;-63
2023/01/01 04:33:13;;;;;;;73.95;62.83;;;;;;;5.76;100.00;102926.16;2062288;28;20175;-64
2023/01/01 04:34:14;;;;;;;76.37;61.90;;;;;;;5.72;100.00;102927.19;2063737;28;20225;-64
2023/01/01 04:35:15;;;;;;;73.07;62.57;;;;;;;5.65;100.00;102918.72;2063987;28;20185;-63
2023/01/01 04:36:15;;;;;;;72.87;61.60;;;;;;;5.65;100.00;102932.47;2064318;28;20191;-63
2023/01/01 04:37:16;;;;;;;69.00;61.03;;;;;;;5.64;100.00;102937.16;2063993;28;20457;-63
2023/01/01 04:38:16;;;;;;;75.00;62.43;;;;;;;5.68;100.00;102940.81;2063742;28;20202;-63
2023/01/01 04:39:17;;;;;;;68.90;60.17;;;;;;;5.70;100.00;102940.50;2064163;28;20179;-63
2023/01/01 04:40:17;;;;;;;70.67;62.13;;;;;;;5.67;100.00;102939.22;2064206;28;20188;-63
2023/01/01 04:41:18;;;;;;;67.27;59.20;;;;;;;4.93;100.00;102834.19;2063707;28;20182;-63
2023/01/01 04:42:19;;;;;;;70.00;60.47;;;;;;;5.51;100.00;102930.06;2063832;28;20197;-63
2023/01/01 04:43:19;;;;;;;66.67;57.77;;;;;;;5.57;100.00;102927.88;2064158;28;20190;-63
2023/01/01 04:44:19;;;;;;;67.87;59.37;;;;;;;5.69;100.00;102942.44;2063982;28;20236;-63
2023/01/01 04:45:20;;;;;;;67.53;58.10;;;;;;;5.73;100.00;102939.78;2064176;28;20284;-63
2023/01/01 04:46:22;;;;;;;67.13;57.33;;;;;;;5.75;100.00;102945.78;2064308;28;20196;-63
2023/01/01 04:47:22;;;;;;;68.63;57.95;;;;;;;5.77;100.00;102949.78;2064192;28;20190;-63
2023/01/01 04:48:24;;;;;;;65.57;57.43;;;;;;;5.79;100.00;102946.69;2063661;28;20185;-63
2023/01/01 04:49:24;;;;;;;66.82;57.45;;;;;;;5.74;100.00;102944.16;2064152;28;20700;-63
2023/01/01 04:50:24;;;;;;;65.93;55.83;;;;;;;5.41;100.00;102908.50;2064169;28;20648;-63
2023/01/01 04:51:25;;;;;;;64.07;55.87;;;;;;;5.73;100.00;102946.09;2063520;28;20203;-63
2023/01/01 04:52:25;;;;;;;66.23;55.80;;;;;;;5.72;100.00;102933.50;2063775;28;20191;-63
2023/01/01 04:53:29;;;;;;;65.37;58.07;;;;;;;5.69;100.00;102941.66;2064145;28;20716;-63
2023/01/01 04:54:29;;;;;;;64.63;56.08;;;;;;;5.61;100.00;102924.09;2064063;28;20206;-63
2023/01/01 04:55:30;;;;;;;67.30;55.80;;;;;;;5.45;100.00;102909.44;2064256;28;20189;-63
2023/01/01 04:56:30;;;;;;;68.07;57.00;;;;;;;5.62;100.00;102928.44;2064006;28;20177;-63
2023/01/01 04:57:31;;;;;;;63.07;55.43;;;;;;;5.21;100.00;102868.16;2064200;28;20700;-63